RJSA(METAR)
08/12 21:00
METAR RJSA 121200Z VRB02KT 9999 FEW010 BKN040 BKN100 23/22 Q1007 RMK
1ST010 5CU040 7AC100 A2974=
戻る
トップページへ戻る
IMOC Co,.Ltd.